sensor_id;sensor_type;location;lat;lon;timestamp;P1;durP1;ratioP1;P2;durP2;ratioP2
9409;SDS011;4744;52.576;13.568;2022-10-29T00:01:22;5.07;;;3.25;;
9409;SDS011;4744;52.576;13.568;2022-10-29T00:03:49;4.80;;;3.35;;
9409;SDS011;4744;52.576;13.568;2022-10-29T00:06:15;6.25;;;3.45;;
9409;SDS011;4744;52.576;13.568;2022-10-29T00:08:42;7.22;;;3.53;;
9409;SDS011;4744;52.576;13.568;2022-10-29T00:11:11;6.93;;;3.38;;
9409;SDS011;4744;52.576;13.568;2022-10-29T00:13:39;6.75;;;3.65;;
9409;SDS011;4744;52.576;13.568;2022-10-29T00:16:07;7.72;;;4.03;;
9409;SDS011;4744;52.576;13.568;2022-10-29T00:18:36;6.68;;;3.45;;
9409;SDS011;4744;52.576;13.568;2022-10-29T00:21:03;6.70;;;3.38;;
9409;SDS011;4744;52.576;13.568;2022-10-29T00:23:32;7.00;;;3.42;;
9409;SDS011;4744;52.576;13.568;2022-10-29T00:25:59;11.73;;;3.55;;
9409;SDS011;4744;52.576;13.568;2022-10-29T00:28:28;7.25;;;3.38;;
9409;SDS011;4744;52.576;13.568;2022-10-29T00:30:55;7.57;;;3.40;;
9409;SDS011;4744;52.576;13.568;2022-10-29T00:33:22;9.73;;;3.90;;
9409;SDS011;4744;52.576;13.568;2022-10-29T00:35:55;7.53;;;3.55;;
9409;SDS011;4744;52.576;13.568;2022-10-29T00:38:22;8.90;;;4.20;;
9409;SDS011;4744;52.576;13.568;2022-10-29T00:40:50;5.18;;;3.83;;
9409;SDS011;4744;52.576;13.568;2022-10-29T00:43:17;8.55;;;3.53;;
9409;SDS011;4744;52.576;13.568;2022-10-29T00:45:47;10.95;;;3.72;;
9409;SDS011;4744;52.576;13.568;2022-10-29T00:48:17;7.78;;;3.78;;
9409;SDS011;4744;52.576;13.568;2022-10-29T00:50:44;8.95;;;3.90;;
9409;SDS011;4744;52.576;13.568;2022-10-29T00:53:13;7.00;;;3.80;;
9409;SDS011;4744;52.576;13.568;2022-10-29T00:55:41;8.43;;;3.95;;
9409;SDS011;4744;52.576;13.568;2022-10-29T00:58:08;13.10;;;4.22;;
9409;SDS011;4744;52.576;13.568;2022-10-29T01:00:36;7.68;;;3.88;;
9409;SDS011;4744;52.576;13.568;2022-10-29T01:03:05;5.68;;;3.72;;
9409;SDS011;4744;52.576;13.568;2022-10-29T01:05:32;9.93;;;4.45;;
9409;SDS011;4744;52.576;13.568;2022-10-29T01:08:00;8.48;;;4.30;;
9409;SDS011;4744;52.576;13.568;2022-10-29T01:10:31;8.95;;;4.00;;
9409;SDS011;4744;52.576;13.568;2022-10-29T01:13:15;7.68;;;3.83;;
9409;SDS011;4744;52.576;13.568;2022-10-29T01:15:52;6.80;;;3.85;;
9409;SDS011;4744;52.576;13.568;2022-10-29T01:18:29;9.93;;;4.10;;
9409;SDS011;4744;52.576;13.568;2022-10-29T01:21:15;9.23;;;3.45;;
9409;SDS011;4744;52.576;13.568;2022-10-29T01:24:17;7.30;;;3.92;;
9409;SDS011;4744;52.576;13.568;2022-10-29T01:27:26;9.32;;;4.30;;
9409;SDS011;4744;52.576;13.568;2022-10-29T01:30:19;3.85;;;3.45;;
9409;SDS011;4744;52.576;13.568;2022-10-29T01:32:58;6.47;;;4.15;;
9409;SDS011;4744;52.576;13.568;2022-10-29T01:35:37;5.53;;;3.85;;
9409;SDS011;4744;52.576;13.568;2022-10-29T01:38:13;7.13;;;3.85;;
9409;SDS011;4744;52.576;13.568;2022-10-29T01:40:52;11.02;;;4.45;;
9409;SDS011;4744;52.576;13.568;2022-10-29T01:43:25;7.55;;;3.35;;
9409;SDS011;4744;52.576;13.568;2022-10-29T01:45:59;6.45;;;3.90;;
9409;SDS011;4744;52.576;13.568;2022-10-29T01:48:31;6.03;;;3.70;;
9409;SDS011;4744;52.576;13.568;2022-10-29T01:51:02;6.43;;;4.07;;
9409;SDS011;4744;52.576;13.568;2022-10-29T01:53:33;7.78;;;4.07;;
9409;SDS011;4744;52.576;13.568;2022-10-29T01:56:02;7.35;;;3.95;;
9409;SDS011;4744;52.576;13.568;2022-10-29T01:58:29;7.82;;;3.90;;
9409;SDS011;4744;52.576;13.568;2022-10-29T02:00:59;9.10;;;4.43;;
9409;SDS011;4744;52.576;13.568;2022-10-29T02:03:38;9.77;;;4.00;;
9409;SDS011;4744;52.576;13.568;2022-10-29T02:06:14;7.25;;;3.72;;
9409;SDS011;4744;52.576;13.568;2022-10-29T02:08:50;7.78;;;4.60;;
9409;SDS011;4744;52.576;13.568;2022-10-29T02:11:26;7.47;;;4.40;;
9409;SDS011;4744;52.576;13.568;2022-10-29T02:14:01;6.68;;;3.97;;
9409;SDS011;4744;52.576;13.568;2022-10-29T02:16:31;6.95;;;4.20;;
9409;SDS011;4744;52.576;13.568;2022-10-29T02:18:59;5.93;;;4.32;;
9409;SDS011;4744;52.576;13.568;2022-10-29T02:21:26;5.85;;;4.05;;
9409;SDS011;4744;52.576;13.568;2022-10-29T02:23:53;5.82;;;4.03;;
9409;SDS011;4744;52.576;13.568;2022-10-29T02:26:20;7.18;;;4.03;;
9409;SDS011;4744;52.576;13.568;2022-10-29T02:28:47;4.78;;;3.78;;
9409;SDS011;4744;52.576;13.568;2022-10-29T02:31:14;5.57;;;3.53;;
9409;SDS011;4744;52.576;13.568;2022-10-29T02:33:41;8.60;;;4.28;;
9409;SDS011;4744;52.576;13.568;2022-10-29T02:36:09;7.57;;;4.63;;
9409;SDS011;4744;52.576;13.568;2022-10-29T02:38:36;7.50;;;4.22;;
9409;SDS011;4744;52.576;13.568;2022-10-29T02:41:03;7.00;;;4.18;;
9409;SDS011;4744;52.576;13.568;2022-10-29T02:43:30;9.18;;;4.38;;
9409;SDS011;4744;52.576;13.568;2022-10-29T02:46:09;7.63;;;4.70;;
9409;SDS011;4744;52.576;13.568;2022-10-29T02:48:37;5.63;;;4.15;;
9409;SDS011;4744;52.576;13.568;2022-10-29T02:51:03;7.95;;;4.35;;
9409;SDS011;4744;52.576;13.568;2022-10-29T02:53:32;6.88;;;4.32;;
9409;SDS011;4744;52.576;13.568;2022-10-29T02:55:58;6.75;;;4.50;;
9409;SDS011;4744;52.576;13.568;2022-10-29T02:58:25;8.75;;;4.65;;
9409;SDS011;4744;52.576;13.568;2022-10-29T03:00:52;9.70;;;4.70;;
9409;SDS011;4744;52.576;13.568;2022-10-29T03:03:19;5.93;;;4.28;;
9409;SDS011;4744;52.576;13.568;2022-10-29T03:05:46;8.30;;;4.65;;
9409;SDS011;4744;52.576;13.568;2022-10-29T03:08:13;6.35;;;4.70;;
9409;SDS011;4744;52.576;13.568;2022-10-29T03:10:41;8.88;;;4.15;;
9409;SDS011;4744;52.576;13.568;2022-10-29T03:13:08;8.15;;;4.80;;
9409;SDS011;4744;52.576;13.568;2022-10-29T03:15:35;4.95;;;3.63;;
9409;SDS011;4744;52.576;13.568;2022-10-29T03:18:02;6.18;;;4.03;;
9409;SDS011;4744;52.576;13.568;2022-10-29T03:20:29;7.45;;;4.57;;
9409;SDS011;4744;52.576;13.568;2022-10-29T03:22:56;7.40;;;4.30;;
9409;SDS011;4744;52.576;13.568;2022-10-29T03:25:22;10.85;;;4.95;;
9409;SDS011;4744;52.576;13.568;2022-10-29T03:27:50;6.22;;;4.15;;
9409;SDS011;4744;52.576;13.568;2022-10-29T03:30:17;7.63;;;4.35;;
9409;SDS011;4744;52.576;13.568;2022-10-29T03:32:45;5.68;;;4.03;;
9409;SDS011;4744;52.576;13.568;2022-10-29T03:35:13;5.07;;;4.25;;
9409;SDS011;4744;52.576;13.568;2022-10-29T03:37:41;7.43;;;4.40;;
9409;SDS011;4744;52.576;13.568;2022-10-29T03:40:08;6.57;;;4.15;;
9409;SDS011;4744;52.576;13.568;2022-10-29T03:42:36;6.78;;;4.40;;
9409;SDS011;4744;52.576;13.568;2022-10-29T03:45:05;7.28;;;4.50;;
9409;SDS011;4744;52.576;13.568;2022-10-29T03:47:33;6.07;;;4.32;;
9409;SDS011;4744;52.576;13.568;2022-10-29T03:50:00;5.40;;;4.35;;
9409;SDS011;4744;52.576;13.568;2022-10-29T03:52:27;9.35;;;4.55;;
9409;SDS011;4744;52.576;13.568;2022-10-29T03:54:54;7.82;;;4.90;;
9409;SDS011;4744;52.576;13.568;2022-10-29T03:57:21;6.07;;;4.43;;
9409;SDS011;4744;52.576;13.568;2022-10-29T03:59:47;6.13;;;4.55;;
9409;SDS011;4744;52.576;13.568;2022-10-29T04:02:15;7.80;;;4.93;;
9409;SDS011;4744;52.576;13.568;2022-10-29T04:04:42;8.80;;;5.50;;
9409;SDS011;4744;52.576;13.568;2022-10-29T04:07:10;8.52;;;5.57;;
9409;SDS011;4744;52.576;13.568;2022-10-29T04:09:37;9.85;;;5.50;;
9409;SDS011;4744;52.576;13.568;2022-10-29T04:12:04;7.75;;;5.20;;
9409;SDS011;4744;52.576;13.568;2022-10-29T04:14:31;8.13;;;5.90;;
9409;SDS011;4744;52.576;13.568;2022-10-29T04:16:58;8.18;;;5.03;;
9409;SDS011;4744;52.576;13.568;2022-10-29T04:19:26;9.75;;;5.50;;
9409;SDS011;4744;52.576;13.568;2022-10-29T04:21:53;6.70;;;5.22;;
9409;SDS011;4744;52.576;13.568;2022-10-29T04:24:19;6.85;;;4.78;;
9409;SDS011;4744;52.576;13.568;2022-10-29T04:26:46;6.50;;;4.35;;
9409;SDS011;4744;52.576;13.568;2022-10-29T04:29:13;7.18;;;4.78;;
9409;SDS011;4744;52.576;13.568;2022-10-29T04:31:39;8.27;;;4.85;;
9409;SDS011;4744;52.576;13.568;2022-10-29T04:34:06;11.40;;;5.88;;
9409;SDS011;4744;52.576;13.568;2022-10-29T04:36:34;5.22;;;4.40;;
9409;SDS011;4744;52.576;13.568;2022-10-29T04:39:01;6.00;;;4.38;;
9409;SDS011;4744;52.576;13.568;2022-10-29T04:41:28;7.95;;;4.65;;
9409;SDS011;4744;52.576;13.568;2022-10-29T04:43:55;7.57;;;4.95;;
9409;SDS011;4744;52.576;13.568;2022-10-29T04:46:21;5.88;;;4.35;;
9409;SDS011;4744;52.576;13.568;2022-10-29T04:48:48;6.07;;;4.38;;
9409;SDS011;4744;52.576;13.568;2022-10-29T04:51:17;4.25;;;3.83;;
9409;SDS011;4744;52.576;13.568;2022-10-29T04:53:47;6.13;;;4.53;;
9409;SDS011;4744;52.576;13.568;2022-10-29T04:56:14;4.38;;;3.65;;
9409;SDS011;4744;52.576;13.568;2022-10-29T04:58:41;4.68;;;4.28;;
9409;SDS011;4744;52.576;13.568;2022-10-29T05:01:08;6.20;;;3.97;;
9409;SDS011;4744;52.576;13.568;2022-10-29T05:03:34;4.75;;;4.20;;
9409;SDS011;4744;52.576;13.568;2022-10-29T05:06:02;5.72;;;4.28;;
9409;SDS011;4744;52.576;13.568;2022-10-29T05:08:29;6.35;;;4.43;;
9409;SDS011;4744;52.576;13.568;2022-10-29T05:10:59;12.90;;;6.00;;
9409;SDS011;4744;52.576;13.568;2022-10-29T05:13:27;9.48;;;5.18;;
9409;SDS011;4744;52.576;13.568;2022-10-29T05:15:54;7.18;;;4.82;;
9409;SDS011;4744;52.576;13.568;2022-10-29T05:18:20;7.38;;;4.90;;
9409;SDS011;4744;52.576;13.568;2022-10-29T05:20:47;7.13;;;5.35;;
9409;SDS011;4744;52.576;13.568;2022-10-29T05:23:17;8.77;;;5.60;;
9409;SDS011;4744;52.576;13.568;2022-10-29T05:25:44;10.55;;;5.32;;
9409;SDS011;4744;52.576;13.568;2022-10-29T05:28:15;5.55;;;5.00;;
9409;SDS011;4744;52.576;13.568;2022-10-29T05:30:44;8.00;;;4.80;;
9409;SDS011;4744;52.576;13.568;2022-10-29T05:33:11;8.30;;;5.07;;
9409;SDS011;4744;52.576;13.568;2022-10-29T05:35:41;8.40;;;6.13;;
9409;SDS011;4744;52.576;13.568;2022-10-29T05:38:08;11.65;;;6.18;;
9409;SDS011;4744;52.576;13.568;2022-10-29T05:40:36;12.10;;;6.82;;
9409;SDS011;4744;52.576;13.568;2022-10-29T05:43:03;10.40;;;6.38;;
9409;SDS011;4744;52.576;13.568;2022-10-29T05:45:31;9.35;;;6.25;;
9409;SDS011;4744;52.576;13.568;2022-10-29T05:47:58;11.32;;;6.25;;
9409;SDS011;4744;52.576;13.568;2022-10-29T05:50:26;7.82;;;5.13;;
9409;SDS011;4744;52.576;13.568;2022-10-29T05:52:53;9.98;;;5.80;;
9409;SDS011;4744;52.576;13.568;2022-10-29T05:55:21;8.68;;;5.47;;
9409;SDS011;4744;52.576;13.568;2022-10-29T05:57:48;6.70;;;5.43;;
9409;SDS011;4744;52.576;13.568;2022-10-29T06:00:15;8.98;;;5.82;;
9409;SDS011;4744;52.576;13.568;2022-10-29T06:02:43;7.80;;;5.25;;
9409;SDS011;4744;52.576;13.568;2022-10-29T06:05:10;11.05;;;6.28;;
9409;SDS011;4744;52.576;13.568;2022-10-29T06:07:37;9.68;;;6.15;;
9409;SDS011;4744;52.576;13.568;2022-10-29T06:10:04;7.05;;;5.18;;
9409;SDS011;4744;52.576;13.568;2022-10-29T06:12:32;7.40;;;4.97;;
9409;SDS011;4744;52.576;13.568;2022-10-29T06:14:59;7.70;;;5.28;;
9409;SDS011;4744;52.576;13.568;2022-10-29T06:17:26;7.07;;;4.93;;
9409;SDS011;4744;52.576;13.568;2022-10-29T06:19:54;8.57;;;5.72;;
9409;SDS011;4744;52.576;13.568;2022-10-29T06:22:21;8.18;;;5.32;;
9409;SDS011;4744;52.576;13.568;2022-10-29T06:24:47;8.02;;;5.05;;
9409;SDS011;4744;52.576;13.568;2022-10-29T06:27:14;4.95;;;4.43;;
9409;SDS011;4744;52.576;13.568;2022-10-29T06:29:41;6.20;;;5.40;;
9409;SDS011;4744;52.576;13.568;2022-10-29T06:32:08;6.70;;;4.70;;
9409;SDS011;4744;52.576;13.568;2022-10-29T06:34:34;6.10;;;4.63;;
9409;SDS011;4744;52.576;13.568;2022-10-29T06:37:02;9.18;;;4.95;;
9409;SDS011;4744;52.576;13.568;2022-10-29T06:39:29;7.80;;;5.07;;
9409;SDS011;4744;52.576;13.568;2022-10-29T06:41:56;6.28;;;4.65;;
9409;SDS011;4744;52.576;13.568;2022-10-29T06:44:23;5.00;;;4.50;;
9409;SDS011;4744;52.576;13.568;2022-10-29T06:46:49;5.72;;;4.68;;
9409;SDS011;4744;52.576;13.568;2022-10-29T06:49:16;6.28;;;5.00;;
9409;SDS011;4744;52.576;13.568;2022-10-29T06:51:43;7.53;;;5.20;;
9409;SDS011;4744;52.576;13.568;2022-10-29T06:54:11;6.78;;;5.00;;
9409;SDS011;4744;52.576;13.568;2022-10-29T06:56:38;7.82;;;5.13;;
9409;SDS011;4744;52.576;13.568;2022-10-29T06:59:05;7.07;;;5.50;;
9409;SDS011;4744;52.576;13.568;2022-10-29T07:01:31;5.50;;;4.68;;
9409;SDS011;4744;52.576;13.568;2022-10-29T07:03:58;6.32;;;5.10;;
9409;SDS011;4744;52.576;13.568;2022-10-29T07:06:25;9.23;;;5.80;;
9409;SDS011;4744;52.576;13.568;2022-10-29T07:08:52;10.85;;;6.45;;
9409;SDS011;4744;52.576;13.568;2022-10-29T07:11:20;7.03;;;6.05;;
9409;SDS011;4744;52.576;13.568;2022-10-29T07:13:47;9.70;;;6.90;;
9409;SDS011;4744;52.576;13.568;2022-10-29T07:16:14;10.88;;;7.53;;
9409;SDS011;4744;52.576;13.568;2022-10-29T07:18:40;12.77;;;7.35;;
9409;SDS011;4744;52.576;13.568;2022-10-29T07:21:07;8.88;;;6.28;;
9409;SDS011;4744;52.576;13.568;2022-10-29T07:23:34;13.63;;;6.30;;
9409;SDS011;4744;52.576;13.568;2022-10-29T07:26:01;11.98;;;6.88;;
9409;SDS011;4744;52.576;13.568;2022-10-29T07:28:29;8.25;;;5.75;;
9409;SDS011;4744;52.576;13.568;2022-10-29T07:30:57;8.50;;;5.47;;
9409;SDS011;4744;52.576;13.568;2022-10-29T07:33:26;6.53;;;5.22;;
9409;SDS011;4744;52.576;13.568;2022-10-29T07:35:54;6.90;;;4.88;;
9409;SDS011;4744;52.576;13.568;2022-10-29T07:38:22;5.47;;;4.80;;
9409;SDS011;4744;52.576;13.568;2022-10-29T07:40:49;14.07;;;6.55;;
9409;SDS011;4744;52.576;13.568;2022-10-29T07:43:16;8.63;;;6.03;;
9409;SDS011;4744;52.576;13.568;2022-10-29T07:45:45;8.88;;;5.82;;
9409;SDS011;4744;52.576;13.568;2022-10-29T07:48:14;9.45;;;5.57;;
9409;SDS011;4744;52.576;13.568;2022-10-29T07:50:42;5.90;;;5.15;;
9409;SDS011;4744;52.576;13.568;2022-10-29T07:53:09;10.45;;;6.43;;
9409;SDS011;4744;52.576;13.568;2022-10-29T07:55:35;10.82;;;6.18;;
9409;SDS011;4744;52.576;13.568;2022-10-29T07:58:03;7.72;;;5.32;;
9409;SDS011;4744;52.576;13.568;2022-10-29T08:00:31;8.38;;;6.60;;
9409;SDS011;4744;52.576;13.568;2022-10-29T08:03:01;10.48;;;6.22;;
9409;SDS011;4744;52.576;13.568;2022-10-29T08:05:28;14.77;;;6.82;;
9409;SDS011;4744;52.576;13.568;2022-10-29T08:07:56;9.45;;;5.53;;
9409;SDS011;4744;52.576;13.568;2022-10-29T08:10:25;9.02;;;6.18;;
9409;SDS011;4744;52.576;13.568;2022-10-29T08:12:52;7.60;;;6.05;;
9409;SDS011;4744;52.576;13.568;2022-10-29T08:15:20;7.68;;;5.95;;
9409;SDS011;4744;52.576;13.568;2022-10-29T08:17:48;8.52;;;6.00;;
9409;SDS011;4744;52.576;13.568;2022-10-29T08:20:17;7.78;;;5.28;;
9409;SDS011;4744;52.576;13.568;2022-10-29T08:22:44;7.80;;;5.75;;
9409;SDS011;4744;52.576;13.568;2022-10-29T08:25:11;14.52;;;7.15;;
9409;SDS011;4744;52.576;13.568;2022-10-29T08:27:38;6.28;;;5.53;;
9409;SDS011;4744;52.576;13.568;2022-10-29T08:30:05;6.38;;;5.53;;
9409;SDS011;4744;52.576;13.568;2022-10-29T08:32:34;8.07;;;5.63;;
9409;SDS011;4744;52.576;13.568;2022-10-29T08:35:00;6.93;;;4.53;;
9409;SDS011;4744;52.576;13.568;2022-10-29T08:37:29;9.93;;;5.68;;
9409;SDS011;4744;52.576;13.568;2022-10-29T08:39:56;13.90;;;6.60;;
9409;SDS011;4744;52.576;13.568;2022-10-29T08:42:27;12.05;;;6.75;;
9409;SDS011;4744;52.576;13.568;2022-10-29T08:45:10;12.55;;;6.47;;
9409;SDS011;4744;52.576;13.568;2022-10-29T08:47:49;10.15;;;6.70;;
9409;SDS011;4744;52.576;13.568;2022-10-29T08:50:33;7.60;;;5.60;;
9409;SDS011;4744;52.576;13.568;2022-10-29T08:53:06;8.95;;;5.60;;
9409;SDS011;4744;52.576;13.568;2022-10-29T08:55:39;12.65;;;5.97;;
9409;SDS011;4744;52.576;13.568;2022-10-29T08:58:09;12.18;;;6.20;;
9409;SDS011;4744;52.576;13.568;2022-10-29T09:00:44;11.25;;;6.45;;
9409;SDS011;4744;52.576;13.568;2022-10-29T09:03:13;10.80;;;6.18;;
9409;SDS011;4744;52.576;13.568;2022-10-29T09:05:44;9.60;;;6.07;;
9409;SDS011;4744;52.576;13.568;2022-10-29T09:08:27;9.60;;;6.13;;
9409;SDS011;4744;52.576;13.568;2022-10-29T09:11:03;10.70;;;5.38;;
9409;SDS011;4744;52.576;13.568;2022-10-29T09:13:41;11.63;;;6.55;;
9409;SDS011;4744;52.576;13.568;2022-10-29T09:16:20;10.05;;;5.95;;
9409;SDS011;4744;52.576;13.568;2022-10-29T09:18:59;8.15;;;5.55;;
9409;SDS011;4744;52.576;13.568;2022-10-29T09:21:38;13.73;;;6.45;;
9409;SDS011;4744;52.576;13.568;2022-10-29T09:24:18;16.58;;;7.28;;
9409;SDS011;4744;52.576;13.568;2022-10-29T09:26:56;11.90;;;6.47;;
9409;SDS011;4744;52.576;13.568;2022-10-29T09:29:34;12.98;;;6.88;;
9409;SDS011;4744;52.576;13.568;2022-10-29T09:32:12;11.93;;;6.47;;
9409;SDS011;4744;52.576;13.568;2022-10-29T09:34:44;13.48;;;6.40;;
9409;SDS011;4744;52.576;13.568;2022-10-29T09:37:15;11.38;;;6.13;;
9409;SDS011;4744;52.576;13.568;2022-10-29T09:39:45;13.10;;;6.60;;
9409;SDS011;4744;52.576;13.568;2022-10-29T09:42:13;11.48;;;5.97;;
9409;SDS011;4744;52.576;13.568;2022-10-29T09:44:45;13.38;;;6.70;;
9409;SDS011;4744;52.576;13.568;2022-10-29T09:47:20;13.02;;;6.82;;
9409;SDS011;4744;52.576;13.568;2022-10-29T09:49:59;9.77;;;6.22;;
9409;SDS011;4744;52.576;13.568;2022-10-29T09:52:34;12.77;;;6.10;;
9409;SDS011;4744;52.576;13.568;2022-10-29T09:55:06;7.50;;;4.60;;
9409;SDS011;4744;52.576;13.568;2022-10-29T09:57:43;10.75;;;5.20;;
9409;SDS011;4744;52.576;13.568;2022-10-29T10:00:14;11.07;;;5.57;;
9409;SDS011;4744;52.576;13.568;2022-10-29T10:02:44;10.63;;;5.88;;
9409;SDS011;4744;52.576;13.568;2022-10-29T10:05:17;10.30;;;5.78;;
9409;SDS011;4744;52.576;13.568;2022-10-29T10:08:02;10.35;;;5.85;;
9409;SDS011;4744;52.576;13.568;2022-10-29T10:10:33;7.25;;;4.70;;
9409;SDS011;4744;52.576;13.568;2022-10-29T10:13:02;13.80;;;5.32;;
9409;SDS011;4744;52.576;13.568;2022-10-29T10:15:30;9.38;;;5.70;;
9409;SDS011;4744;52.576;13.568;2022-10-29T10:17:59;10.88;;;5.43;;
9409;SDS011;4744;52.576;13.568;2022-10-29T10:20:29;13.85;;;5.78;;
9409;SDS011;4744;52.576;13.568;2022-10-29T10:23:00;13.13;;;6.45;;
9409;SDS011;4744;52.576;13.568;2022-10-29T10:25:31;11.63;;;6.25;;
9409;SDS011;4744;52.576;13.568;2022-10-29T10:28:02;14.38;;;6.63;;
9409;SDS011;4744;52.576;13.568;2022-10-29T10:30:30;13.68;;;6.53;;
9409;SDS011;4744;52.576;13.568;2022-10-29T10:33:03;16.13;;;6.28;;
9409;SDS011;4744;52.576;13.568;2022-10-29T10:35:37;13.35;;;6.60;;
9409;SDS011;4744;52.576;13.568;2022-10-29T10:38:07;10.55;;;6.00;;
9409;SDS011;4744;52.576;13.568;2022-10-29T10:40:37;12.40;;;5.53;;
9409;SDS011;4744;52.576;13.568;2022-10-29T10:43:04;8.88;;;5.43;;
9409;SDS011;4744;52.576;13.568;2022-10-29T10:45:32;9.43;;;5.28;;
9409;SDS011;4744;52.576;13.568;2022-10-29T10:48:02;9.25;;;5.90;;
9409;SDS011;4744;52.576;13.568;2022-10-29T10:50:34;13.32;;;5.47;;
9409;SDS011;4744;52.576;13.568;2022-10-29T10:53:03;11.23;;;6.05;;
9409;SDS011;4744;52.576;13.568;2022-10-29T10:55:41;11.90;;;5.28;;
9409;SDS011;4744;52.576;13.568;2022-10-29T10:58:13;10.00;;;5.78;;
9409;SDS011;4744;52.576;13.568;2022-10-29T11:00:46;8.43;;;4.85;;
9409;SDS011;4744;52.576;13.568;2022-10-29T11:03:18;11.00;;;5.60;;
9409;SDS011;4744;52.576;13.568;2022-10-29T11:05:53;9.25;;;5.13;;
9409;SDS011;4744;52.576;13.568;2022-10-29T11:08:27;11.30;;;5.28;;
9409;SDS011;4744;52.576;13.568;2022-10-29T11:11:01;16.73;;;6.82;;
9409;SDS011;4744;52.576;13.568;2022-10-29T11:13:32;11.30;;;6.38;;
9409;SDS011;4744;52.576;13.568;2022-10-29T11:16:00;5.88;;;4.30;;
9409;SDS011;4744;52.576;13.568;2022-10-29T11:18:34;10.23;;;5.93;;
9409;SDS011;4744;52.576;13.568;2022-10-29T11:21:05;9.45;;;5.65;;
9409;SDS011;4744;52.576;13.568;2022-10-29T11:23:42;11.25;;;5.68;;
9409;SDS011;4744;52.576;13.568;2022-10-29T11:26:16;8.52;;;4.93;;
9409;SDS011;4744;52.576;13.568;2022-10-29T11:28:51;5.57;;;4.05;;
9409;SDS011;4744;52.576;13.568;2022-10-29T11:31:26;11.43;;;4.90;;
9409;SDS011;4744;52.576;13.568;2022-10-29T11:34:02;10.60;;;5.65;;
9409;SDS011;4744;52.576;13.568;2022-10-29T11:36:33;10.15;;;5.32;;
9409;SDS011;4744;52.576;13.568;2022-10-29T11:39:07;11.82;;;5.88;;
9409;SDS011;4744;52.576;13.568;2022-10-29T11:41:42;12.30;;;6.20;;
9409;SDS011;4744;52.576;13.568;2022-10-29T11:44:13;12.68;;;6.68;;
9409;SDS011;4744;52.576;13.568;2022-10-29T11:46:45;12.55;;;6.10;;
9409;SDS011;4744;52.576;13.568;2022-10-29T11:49:25;8.25;;;5.70;;
9409;SDS011;4744;52.576;13.568;2022-10-29T11:52:05;14.52;;;6.20;;
9409;SDS011;4744;52.576;13.568;2022-10-29T11:54:45;10.30;;;6.53;;
9409;SDS011;4744;52.576;13.568;2022-10-29T11:57:26;12.95;;;5.60;;
9409;SDS011;4744;52.576;13.568;2022-10-29T12:00:03;8.88;;;5.18;;
9409;SDS011;4744;52.576;13.568;2022-10-29T12:02:41;10.40;;;6.55;;
9409;SDS011;4744;52.576;13.568;2022-10-29T12:05:34;10.13;;;5.82;;
9409;SDS011;4744;52.576;13.568;2022-10-29T12:08:13;8.35;;;5.63;;
9409;SDS011;4744;52.576;13.568;2022-10-29T12:10:51;8.65;;;5.65;;
9409;SDS011;4744;52.576;13.568;2022-10-29T12:13:30;10.55;;;5.63;;
9409;SDS011;4744;52.576;13.568;2022-10-29T12:16:17;7.30;;;5.03;;
9409;SDS011;4744;52.576;13.568;2022-10-29T12:18:54;6.32;;;4.03;;
9409;SDS011;4744;52.576;13.568;2022-10-29T12:21:32;5.38;;;3.63;;
9409;SDS011;4744;52.576;13.568;2022-10-29T12:24:08;10.00;;;4.88;;
9409;SDS011;4744;52.576;13.568;2022-10-29T12:26:47;12.57;;;5.30;;
9409;SDS011;4744;52.576;13.568;2022-10-29T12:29:22;12.15;;;5.55;;
9409;SDS011;4744;52.576;13.568;2022-10-29T12:31:58;8.38;;;4.70;;
9409;SDS011;4744;52.576;13.568;2022-10-29T12:34:34;5.97;;;4.82;;
9409;SDS011;4744;52.576;13.568;2022-10-29T12:37:07;9.00;;;5.57;;
9409;SDS011;4744;52.576;13.568;2022-10-29T12:39:39;10.05;;;5.45;;
9409;SDS011;4744;52.576;13.568;2022-10-29T12:42:11;9.52;;;5.65;;
9409;SDS011;4744;52.576;13.568;2022-10-29T12:44:45;10.90;;;5.07;;
9409;SDS011;4744;52.576;13.568;2022-10-29T12:47:25;6.57;;;4.22;;
9409;SDS011;4744;52.576;13.568;2022-10-29T12:50:00;4.50;;;3.70;;
9409;SDS011;4744;52.576;13.568;2022-10-29T12:52:41;5.13;;;4.13;;
9409;SDS011;4744;52.576;13.568;2022-10-29T12:55:13;7.55;;;4.30;;
9409;SDS011;4744;52.576;13.568;2022-10-29T12:57:41;15.10;;;5.00;;
9409;SDS011;4744;52.576;13.568;2022-10-29T13:09:14;10.45;;;5.03;;
9409;SDS011;4744;52.576;13.568;2022-10-29T13:11:45;9.15;;;5.45;;
9409;SDS011;4744;52.576;13.568;2022-10-29T13:14:13;7.57;;;4.38;;
9409;SDS011;4744;52.576;13.568;2022-10-29T13:16:48;10.10;;;5.13;;
9409;SDS011;4744;52.576;13.568;2022-10-29T13:19:21;10.77;;;5.45;;
9409;SDS011;4744;52.576;13.568;2022-10-29T13:22:01;7.85;;;4.30;;
9409;SDS011;4744;52.576;13.568;2022-10-29T13:24:32;8.05;;;5.00;;
9409;SDS011;4744;52.576;13.568;2022-10-29T13:27:00;10.00;;;4.75;;
9409;SDS011;4744;52.576;13.568;2022-10-29T13:29:43;9.20;;;4.68;;
9409;SDS011;4744;52.576;13.568;2022-10-29T13:32:31;12.80;;;5.75;;
9409;SDS011;4744;52.576;13.568;2022-10-29T13:35:00;8.13;;;4.72;;
9409;SDS011;4744;52.576;13.568;2022-10-29T13:43:34;8.43;;;4.72;;
9409;SDS011;4744;52.576;13.568;2022-10-29T13:46:16;6.90;;;4.25;;
9409;SDS011;4744;52.576;13.568;2022-10-29T13:48:51;5.78;;;3.67;;
9409;SDS011;4744;52.576;13.568;2022-10-29T13:51:23;5.88;;;4.47;;
9409;SDS011;4744;52.576;13.568;2022-10-29T13:53:57;5.57;;;4.05;;
9409;SDS011;4744;52.576;13.568;2022-10-29T13:56:32;4.55;;;3.83;;
9409;SDS011;4744;52.576;13.568;2022-10-29T13:59:03;13.23;;;5.85;;
9409;SDS011;4744;52.576;13.568;2022-10-29T14:01:34;10.80;;;5.30;;
9409;SDS011;4744;52.576;13.568;2022-10-29T14:04:03;4.22;;;3.83;;
9409;SDS011;4744;52.576;13.568;2022-10-29T14:06:39;6.25;;;4.15;;
9409;SDS011;4744;52.576;13.568;2022-10-29T14:09:10;6.72;;;3.83;;
9409;SDS011;4744;52.576;13.568;2022-10-29T14:11:46;5.50;;;3.85;;
9409;SDS011;4744;52.576;13.568;2022-10-29T14:14:22;4.65;;;3.78;;
9409;SDS011;4744;52.576;13.568;2022-10-29T14:17:08;3.80;;;3.50;;
9409;SDS011;4744;52.576;13.568;2022-10-29T14:19:36;4.78;;;3.72;;
9409;SDS011;4744;52.576;13.568;2022-10-29T14:22:14;4.00;;;3.60;;
9409;SDS011;4744;52.576;13.568;2022-10-29T14:24:54;5.57;;;3.40;;
9409;SDS011;4744;52.576;13.568;2022-10-29T14:27:21;4.00;;;3.70;;
9409;SDS011;4744;52.576;13.568;2022-10-29T14:29:48;5.15;;;4.03;;
9409;SDS011;4744;52.576;13.568;2022-10-29T14:32:15;4.80;;;3.97;;
9409;SDS011;4744;52.576;13.568;2022-10-29T14:34:46;10.80;;;5.60;;
9409;SDS011;4744;52.576;13.568;2022-10-29T14:37:16;6.53;;;4.78;;
9409;SDS011;4744;52.576;13.568;2022-10-29T14:39:48;7.25;;;4.97;;
9409;SDS011;4744;52.576;13.568;2022-10-29T14:42:19;8.38;;;5.13;;
9409;SDS011;4744;52.576;13.568;2022-10-29T14:44:52;6.45;;;4.43;;
9409;SDS011;4744;52.576;13.568;2022-10-29T14:47:22;9.18;;;5.15;;
9409;SDS011;4744;52.576;13.568;2022-10-29T14:49:50;9.20;;;5.30;;
9409;SDS011;4744;52.576;13.568;2022-10-29T14:52:21;7.18;;;5.15;;
9409;SDS011;4744;52.576;13.568;2022-10-29T14:54:52;6.55;;;5.18;;
9409;SDS011;4744;52.576;13.568;2022-10-29T14:57:22;8.48;;;4.65;;
9409;SDS011;4744;52.576;13.568;2022-10-29T14:59:53;6.63;;;4.53;;
9409;SDS011;4744;52.576;13.568;2022-10-29T15:02:21;4.78;;;4.28;;
9409;SDS011;4744;52.576;13.568;2022-10-29T15:04:49;8.55;;;4.40;;
9409;SDS011;4744;52.576;13.568;2022-10-29T15:07:27;4.25;;;3.85;;
9409;SDS011;4744;52.576;13.568;2022-10-29T15:12:47;7.25;;;4.43;;
9409;SDS011;4744;52.576;13.568;2022-10-29T15:15:21;5.65;;;4.13;;
9409;SDS011;4744;52.576;13.568;2022-10-29T15:17:51;4.53;;;3.78;;
9409;SDS011;4744;52.576;13.568;2022-10-29T15:20:21;12.40;;;6.70;;
9409;SDS011;4744;52.576;13.568;2022-10-29T15:22:52;11.98;;;6.78;;
9409;SDS011;4744;52.576;13.568;2022-10-29T15:25:22;9.52;;;7.25;;
9409;SDS011;4744;52.576;13.568;2022-10-29T15:27:53;10.23;;;7.25;;
9409;SDS011;4744;52.576;13.568;2022-10-29T15:30:21;12.10;;;7.10;;
9409;SDS011;4744;52.576;13.568;2022-10-29T15:32:56;9.02;;;6.72;;
9409;SDS011;4744;52.576;13.568;2022-10-29T15:35:24;6.97;;;5.63;;
9409;SDS011;4744;52.576;13.568;2022-10-29T15:37:51;6.00;;;5.25;;